Holcomb, Washington
Current Conditions -  °F | °C
As of 11:53 AM on Monday 26 Jan 2015 (Local Time) from KHQM Reporting Station
Haze Haze  
Wind Chill: 57°   Ceiling: 1900
Heat Index: 57°   Visibility: 6mi
Dew Point: 51°   Wind: 8mph
Humidity: 81%   Direction: 160°SSE
Pressure: 29.95"   Gusts: NA
Location:  46.6563°N, 123.58°W
Report Text: KHQM 261953Z AUTO 16007KT 6SM HZ OVC019 14/11 A2995 RMK AO2 SLP146 T01390106
Loading
Personal Weather Stations






























Interactive Weather Map New forecast layout! Learn more

10-Day Weather Forecast

Advertisements
Track Severe Weather on mobile